sensor_id;sensor_type;location;lat;lon;timestamp;pressure;altitude;pressure_sealevel;temperature
20736;BMP180;10528;52.124;5.196;2023-06-22T00:00:02;101918.00;;;26.30
20736;BMP180;10528;52.124;5.196;2023-06-22T00:02:37;101919.00;;;26.30
20736;BMP180;10528;52.124;5.196;2023-06-22T00:05:05;101917.00;;;26.20
20736;BMP180;10528;52.124;5.196;2023-06-22T00:07:32;101917.00;;;26.20
20736;BMP180;10528;52.124;5.196;2023-06-22T00:09:59;101914.00;;;26.20
20736;BMP180;10528;52.124;5.196;2023-06-22T00:12:25;101919.00;;;26.20
20736;BMP180;10528;52.124;5.196;2023-06-22T00:14:52;101929.00;;;26.20
20736;BMP180;10528;52.124;5.196;2023-06-22T00:17:19;101918.00;;;26.10
20736;BMP180;10528;52.124;5.196;2023-06-22T00:19:49;101919.00;;;26.10
20736;BMP180;10528;52.124;5.196;2023-06-22T00:22:20;101915.00;;;26.10
20736;BMP180;10528;52.124;5.196;2023-06-22T00:24:56;101910.00;;;26.10
20736;BMP180;10528;52.124;5.196;2023-06-22T00:27:23;101914.00;;;26.10
20736;BMP180;10528;52.124;5.196;2023-06-22T00:29:50;101896.00;;;26.00
20736;BMP180;10528;52.124;5.196;2023-06-22T00:32:17;101903.00;;;26.00
20736;BMP180;10528;52.124;5.196;2023-06-22T00:34:46;101894.00;;;26.00
20736;BMP180;10528;52.124;5.196;2023-06-22T00:37:13;101891.00;;;26.00
20736;BMP180;10528;52.124;5.196;2023-06-22T00:39:42;101895.00;;;26.00
20736;BMP180;10528;52.124;5.196;2023-06-22T00:42:10;101901.00;;;26.00
20736;BMP180;10528;52.124;5.196;2023-06-22T00:44:37;101903.00;;;25.90
20736;BMP180;10528;52.124;5.196;2023-06-22T00:47:04;101894.00;;;25.90
20736;BMP180;10528;52.124;5.196;2023-06-22T00:49:33;101891.00;;;25.90
20736;BMP180;10528;52.124;5.196;2023-06-22T00:52:00;101883.00;;;25.90
20736;BMP180;10528;52.124;5.196;2023-06-22T00:54:28;101878.00;;;25.80
20736;BMP180;10528;52.124;5.196;2023-06-22T00:56:55;101886.00;;;25.80
20736;BMP180;10528;52.124;5.196;2023-06-22T00:59:26;101883.00;;;25.80
20736;BMP180;10528;52.124;5.196;2023-06-22T01:01:53;101885.00;;;25.80
20736;BMP180;10528;52.124;5.196;2023-06-22T01:04:23;101888.00;;;25.70
20736;BMP180;10528;52.124;5.196;2023-06-22T01:07:10;101887.00;;;25.70
20736;BMP180;10528;52.124;5.196;2023-06-22T01:10:21;101871.00;;;25.60
20736;BMP180;10528;52.124;5.196;2023-06-22T01:12:56;101873.00;;;25.60
20736;BMP180;10528;52.124;5.196;2023-06-22T01:15:34;101873.00;;;25.60
20736;BMP180;10528;52.124;5.196;2023-06-22T01:18:05;101874.00;;;25.50
20736;BMP180;10528;52.124;5.196;2023-06-22T01:20:36;101875.00;;;25.50
20736;BMP180;10528;52.124;5.196;2023-06-22T01:23:26;101873.00;;;25.40
20736;BMP180;10528;52.124;5.196;2023-06-22T01:26:18;101877.00;;;25.40
20736;BMP180;10528;52.124;5.196;2023-06-22T01:28:51;101881.00;;;25.40
20736;BMP180;10528;52.124;5.196;2023-06-22T01:31:26;101884.00;;;25.30
20736;BMP180;10528;52.124;5.196;2023-06-22T01:34:01;101877.00;;;25.30
20736;BMP180;10528;52.124;5.196;2023-06-22T01:36:30;101875.00;;;25.30
20736;BMP180;10528;52.124;5.196;2023-06-22T01:38:58;101870.00;;;25.30
20736;BMP180;10528;52.124;5.196;2023-06-22T01:41:27;101873.00;;;25.20
20736;BMP180;10528;52.124;5.196;2023-06-22T01:43:56;101871.00;;;25.20
20736;BMP180;10528;52.124;5.196;2023-06-22T01:46:23;101882.00;;;25.20
20736;BMP180;10528;52.124;5.196;2023-06-22T01:48:51;101875.00;;;25.20
20736;BMP180;10528;52.124;5.196;2023-06-22T01:51:18;101877.00;;;25.10
20736;BMP180;10528;52.124;5.196;2023-06-22T01:53:45;101877.00;;;25.10
20736;BMP180;10528;52.124;5.196;2023-06-22T01:56:17;101876.00;;;25.10
20736;BMP180;10528;52.124;5.196;2023-06-22T02:02:02;101865.00;;;25.00
20736;BMP180;10528;52.124;5.196;2023-06-22T02:04:52;101869.00;;;24.90
20736;BMP180;10528;52.124;5.196;2023-06-22T02:07:23;101865.00;;;24.90
20736;BMP180;10528;52.124;5.196;2023-06-22T02:09:57;101860.00;;;24.90
20736;BMP180;10528;52.124;5.196;2023-06-22T02:12:28;101859.00;;;24.90
20736;BMP180;10528;52.124;5.196;2023-06-22T02:14:57;101853.00;;;24.80
20736;BMP180;10528;52.124;5.196;2023-06-22T02:17:26;101860.00;;;24.80
20736;BMP180;10528;52.124;5.196;2023-06-22T02:19:53;101861.00;;;24.80
20736;BMP180;10528;52.124;5.196;2023-06-22T02:22:20;101856.00;;;24.80
20736;BMP180;10528;52.124;5.196;2023-06-22T02:24:47;101854.00;;;24.70
20736;BMP180;10528;52.124;5.196;2023-06-22T02:27:14;101846.00;;;24.70
20736;BMP180;10528;52.124;5.196;2023-06-22T02:29:41;101855.00;;;24.70
20736;BMP180;10528;52.124;5.196;2023-06-22T02:32:09;101851.00;;;24.70
20736;BMP180;10528;52.124;5.196;2023-06-22T02:34:36;101848.00;;;24.70
20736;BMP180;10528;52.124;5.196;2023-06-22T02:37:03;101852.00;;;24.60
20736;BMP180;10528;52.124;5.196;2023-06-22T02:39:31;101848.00;;;24.60
20736;BMP180;10528;52.124;5.196;2023-06-22T02:41:58;101850.00;;;24.60
20736;BMP180;10528;52.124;5.196;2023-06-22T02:44:25;101845.00;;;24.60
20736;BMP180;10528;52.124;5.196;2023-06-22T02:46:52;101848.00;;;24.50
20736;BMP180;10528;52.124;5.196;2023-06-22T02:49:20;101859.00;;;24.50
20736;BMP180;10528;52.124;5.196;2023-06-22T02:51:48;101857.00;;;24.50
20736;BMP180;10528;52.124;5.196;2023-06-22T02:54:19;101854.00;;;24.50
20736;BMP180;10528;52.124;5.196;2023-06-22T02:56:49;101849.00;;;24.40
20736;BMP180;10528;52.124;5.196;2023-06-22T02:59:17;101855.00;;;24.40
20736;BMP180;10528;52.124;5.196;2023-06-22T03:01:47;101863.00;;;24.40
20736;BMP180;10528;52.124;5.196;2023-06-22T03:04:20;101856.00;;;24.40
20736;BMP180;10528;52.124;5.196;2023-06-22T03:06:47;101851.00;;;24.40
20736;BMP180;10528;52.124;5.196;2023-06-22T03:09:18;101847.00;;;24.30
20736;BMP180;10528;52.124;5.196;2023-06-22T03:11:45;101848.00;;;24.30
20736;BMP180;10528;52.124;5.196;2023-06-22T03:14:12;101848.00;;;24.30
20736;BMP180;10528;52.124;5.196;2023-06-22T03:16:39;101841.00;;;24.30
20736;BMP180;10528;52.124;5.196;2023-06-22T03:19:07;101845.00;;;24.30
20736;BMP180;10528;52.124;5.196;2023-06-22T03:21:34;101842.00;;;24.20
20736;BMP180;10528;52.124;5.196;2023-06-22T03:24:01;101841.00;;;24.20
20736;BMP180;10528;52.124;5.196;2023-06-22T03:26:28;101845.00;;;24.20
20736;BMP180;10528;52.124;5.196;2023-06-22T03:28:56;101834.00;;;24.20
20736;BMP180;10528;52.124;5.196;2023-06-22T03:31:23;101836.00;;;24.20
20736;BMP180;10528;52.124;5.196;2023-06-22T03:33:52;101827.00;;;24.20
20736;BMP180;10528;52.124;5.196;2023-06-22T03:36:19;101823.00;;;24.10
20736;BMP180;10528;52.124;5.196;2023-06-22T03:38:48;101820.00;;;24.10
20736;BMP180;10528;52.124;5.196;2023-06-22T03:41:16;101826.00;;;24.10
20736;BMP180;10528;52.124;5.196;2023-06-22T03:43:43;101832.00;;;24.10
20736;BMP180;10528;52.124;5.196;2023-06-22T03:46:10;101821.00;;;24.10
20736;BMP180;10528;52.124;5.196;2023-06-22T03:48:38;101822.00;;;24.10
20736;BMP180;10528;52.124;5.196;2023-06-22T03:51:06;101826.00;;;24.10
20736;BMP180;10528;52.124;5.196;2023-06-22T03:53:33;101825.00;;;24.10
20736;BMP180;10528;52.124;5.196;2023-06-22T03:56:00;101826.00;;;24.10
20736;BMP180;10528;52.124;5.196;2023-06-22T03:58:27;101825.00;;;24.10
20736;BMP180;10528;52.124;5.196;2023-06-22T04:01:00;101821.00;;;24.10
20736;BMP180;10528;52.124;5.196;2023-06-22T04:03:27;101820.00;;;24.10
20736;BMP180;10528;52.124;5.196;2023-06-22T04:05:54;101812.00;;;24.10
20736;BMP180;10528;52.124;5.196;2023-06-22T04:08:21;101811.00;;;24.10
20736;BMP180;10528;52.124;5.196;2023-06-22T04:10:48;101819.00;;;24.10
20736;BMP180;10528;52.124;5.196;2023-06-22T04:13:14;101811.00;;;24.20
20736;BMP180;10528;52.124;5.196;2023-06-22T04:15:41;101807.00;;;24.20
20736;BMP180;10528;52.124;5.196;2023-06-22T04:18:08;101807.00;;;24.20
20736;BMP180;10528;52.124;5.196;2023-06-22T04:20:36;101804.00;;;24.20
20736;BMP180;10528;52.124;5.196;2023-06-22T04:23:03;101811.00;;;24.30
20736;BMP180;10528;52.124;5.196;2023-06-22T04:25:30;101805.00;;;24.30
20736;BMP180;10528;52.124;5.196;2023-06-22T04:27:57;101794.00;;;24.30
20736;BMP180;10528;52.124;5.196;2023-06-22T04:30:24;101800.00;;;24.40
20736;BMP180;10528;52.124;5.196;2023-06-22T04:32:51;101793.00;;;24.40
20736;BMP180;10528;52.124;5.196;2023-06-22T04:35:25;101805.00;;;24.40
20736;BMP180;10528;52.124;5.196;2023-06-22T04:37:55;101808.00;;;24.50
20736;BMP180;10528;52.124;5.196;2023-06-22T04:40:23;101816.00;;;24.50
20736;BMP180;10528;52.124;5.196;2023-06-22T04:42:50;101822.00;;;24.60
20736;BMP180;10528;52.124;5.196;2023-06-22T04:45:21;101812.00;;;24.60
20736;BMP180;10528;52.124;5.196;2023-06-22T04:47:48;101806.00;;;24.60
20736;BMP180;10528;52.124;5.196;2023-06-22T04:50:16;101797.00;;;24.70
20736;BMP180;10528;52.124;5.196;2023-06-22T04:52:44;101811.00;;;24.70
20736;BMP180;10528;52.124;5.196;2023-06-22T04:55:12;101809.00;;;24.90
20736;BMP180;10528;52.124;5.196;2023-06-22T04:57:41;101817.00;;;25.10
20736;BMP180;10528;52.124;5.196;2023-06-22T05:00:12;101814.00;;;25.50
20736;BMP180;10528;52.124;5.196;2023-06-22T05:02:40;101823.00;;;25.90
20736;BMP180;10528;52.124;5.196;2023-06-22T05:05:08;101823.00;;;26.20
20736;BMP180;10528;52.124;5.196;2023-06-22T05:07:36;101817.00;;;26.50
20736;BMP180;10528;52.124;5.196;2023-06-22T05:10:04;101808.00;;;26.80
20736;BMP180;10528;52.124;5.196;2023-06-22T05:12:31;101814.00;;;27.10
20736;BMP180;10528;52.124;5.196;2023-06-22T05:15:04;101815.00;;;27.30
20736;BMP180;10528;52.124;5.196;2023-06-22T05:17:31;101816.00;;;27.60
20736;BMP180;10528;52.124;5.196;2023-06-22T05:19:58;101815.00;;;27.80
20736;BMP180;10528;52.124;5.196;2023-06-22T05:22:25;101817.00;;;28.10
20736;BMP180;10528;52.124;5.196;2023-06-22T05:24:52;101822.00;;;28.40
20736;BMP180;10528;52.124;5.196;2023-06-22T05:27:22;101817.00;;;28.80
20736;BMP180;10528;52.124;5.196;2023-06-22T05:29:49;101815.00;;;29.10
20736;BMP180;10528;52.124;5.196;2023-06-22T05:32:16;101826.00;;;29.40
20736;BMP180;10528;52.124;5.196;2023-06-22T05:34:43;101823.00;;;29.70
20736;BMP180;10528;52.124;5.196;2023-06-22T05:37:10;101827.00;;;29.90
20736;BMP180;10528;52.124;5.196;2023-06-22T05:39:37;101826.00;;;30.30
20736;BMP180;10528;52.124;5.196;2023-06-22T05:42:07;101828.00;;;30.50
20736;BMP180;10528;52.124;5.196;2023-06-22T05:44:36;101830.00;;;30.50
20736;BMP180;10528;52.124;5.196;2023-06-22T05:47:06;101833.00;;;30.40
20736;BMP180;10528;52.124;5.196;2023-06-22T05:49:33;101832.00;;;30.40
20736;BMP180;10528;52.124;5.196;2023-06-22T05:52:00;101830.00;;;30.40
20736;BMP180;10528;52.124;5.196;2023-06-22T05:54:28;101840.00;;;30.30
20736;BMP180;10528;52.124;5.196;2023-06-22T05:56:55;101838.00;;;30.30
20736;BMP180;10528;52.124;5.196;2023-06-22T05:59:22;101822.00;;;30.20
20736;BMP180;10528;52.124;5.196;2023-06-22T06:01:49;101834.00;;;30.20
20736;BMP180;10528;52.124;5.196;2023-06-22T06:04:19;101841.00;;;30.10
20736;BMP180;10528;52.124;5.196;2023-06-22T06:06:46;101840.00;;;30.00
20736;BMP180;10528;52.124;5.196;2023-06-22T06:09:16;101832.00;;;30.00
20736;BMP180;10528;52.124;5.196;2023-06-22T06:11:46;101826.00;;;30.10
20736;BMP180;10528;52.124;5.196;2023-06-22T06:14:13;101835.00;;;30.40
20736;BMP180;10528;52.124;5.196;2023-06-22T06:16:40;101831.00;;;30.70
20736;BMP180;10528;52.124;5.196;2023-06-22T06:19:07;101831.00;;;30.90
20736;BMP180;10528;52.124;5.196;2023-06-22T06:21:34;101827.00;;;31.00
20736;BMP180;10528;52.124;5.196;2023-06-22T06:24:01;101823.00;;;31.00
20736;BMP180;10528;52.124;5.196;2023-06-22T06:26:28;101820.00;;;31.00
20736;BMP180;10528;52.124;5.196;2023-06-22T06:28:57;101815.00;;;31.10
20736;BMP180;10528;52.124;5.196;2023-06-22T06:31:24;101813.00;;;31.20
20736;BMP180;10528;52.124;5.196;2023-06-22T06:33:51;101812.00;;;31.50
20736;BMP180;10528;52.124;5.196;2023-06-22T06:36:18;101813.00;;;31.90
20736;BMP180;10528;52.124;5.196;2023-06-22T06:38:45;101814.00;;;32.30
20736;BMP180;10528;52.124;5.196;2023-06-22T06:41:15;101808.00;;;32.60
20736;BMP180;10528;52.124;5.196;2023-06-22T06:43:43;101812.00;;;32.90
20736;BMP180;10528;52.124;5.196;2023-06-22T06:46:10;101807.00;;;33.20
20736;BMP180;10528;52.124;5.196;2023-06-22T06:48:37;101798.00;;;33.40
20736;BMP180;10528;52.124;5.196;2023-06-22T06:51:04;101803.00;;;33.50
20736;BMP180;10528;52.124;5.196;2023-06-22T06:53:31;101809.00;;;33.70
20736;BMP180;10528;52.124;5.196;2023-06-22T06:55:58;101804.00;;;33.90
20736;BMP180;10528;52.124;5.196;2023-06-22T06:58:25;101803.00;;;34.00
20736;BMP180;10528;52.124;5.196;2023-06-22T07:00:52;101791.00;;;34.30
20736;BMP180;10528;52.124;5.196;2023-06-22T07:03:19;101806.00;;;34.60
20736;BMP180;10528;52.124;5.196;2023-06-22T07:05:46;101806.00;;;34.90
20736;BMP180;10528;52.124;5.196;2023-06-22T07:08:13;101796.00;;;35.10
20736;BMP180;10528;52.124;5.196;2023-06-22T07:10:40;101801.00;;;35.20
20736;BMP180;10528;52.124;5.196;2023-06-22T07:13:07;101801.00;;;35.20
20736;BMP180;10528;52.124;5.196;2023-06-22T07:15:33;101802.00;;;35.30
20736;BMP180;10528;52.124;5.196;2023-06-22T07:18:00;101793.00;;;35.30
20736;BMP180;10528;52.124;5.196;2023-06-22T07:20:27;101788.00;;;35.30
20736;BMP180;10528;52.124;5.196;2023-06-22T07:22:55;101795.00;;;35.40
20736;BMP180;10528;52.124;5.196;2023-06-22T07:25:22;101799.00;;;35.60
20736;BMP180;10528;52.124;5.196;2023-06-22T07:28:01;101801.00;;;35.80
20736;BMP180;10528;52.124;5.196;2023-06-22T07:30:30;101809.00;;;36.10
20736;BMP180;10528;52.124;5.196;2023-06-22T07:32:59;101799.00;;;36.30
20736;BMP180;10528;52.124;5.196;2023-06-22T07:35:30;101806.00;;;36.70
20736;BMP180;10528;52.124;5.196;2023-06-22T07:37:57;101798.00;;;37.00
20736;BMP180;10528;52.124;5.196;2023-06-22T07:40:24;101800.00;;;37.30
20736;BMP180;10528;52.124;5.196;2023-06-22T07:42:51;101796.00;;;37.60
20736;BMP180;10528;52.124;5.196;2023-06-22T07:45:19;101790.00;;;37.90
20736;BMP180;10528;52.124;5.196;2023-06-22T07:47:46;101788.00;;;38.10
20736;BMP180;10528;52.124;5.196;2023-06-22T07:50:14;101795.00;;;38.20
20736;BMP180;10528;52.124;5.196;2023-06-22T07:52:40;101793.00;;;38.30
20736;BMP180;10528;52.124;5.196;2023-06-22T07:55:08;101782.00;;;38.20
20736;BMP180;10528;52.124;5.196;2023-06-22T07:57:35;101790.00;;;38.20
20736;BMP180;10528;52.124;5.196;2023-06-22T08:00:05;101790.00;;;38.30
20736;BMP180;10528;52.124;5.196;2023-06-22T08:02:45;101781.00;;;38.20
20736;BMP180;10528;52.124;5.196;2023-06-22T08:05:15;101777.00;;;38.20
20736;BMP180;10528;52.124;5.196;2023-06-22T08:07:45;101767.00;;;38.20
20736;BMP180;10528;52.124;5.196;2023-06-22T08:10:15;101767.00;;;38.20
20736;BMP180;10528;52.124;5.196;2023-06-22T08:12:42;101763.00;;;38.30
20736;BMP180;10528;52.124;5.196;2023-06-22T08:15:10;101754.00;;;38.30
20736;BMP180;10528;52.124;5.196;2023-06-22T08:17:38;101758.00;;;38.40
20736;BMP180;10528;52.124;5.196;2023-06-22T08:20:07;101748.00;;;38.40
20736;BMP180;10528;52.124;5.196;2023-06-22T08:22:42;101752.00;;;38.50
20736;BMP180;10528;52.124;5.196;2023-06-22T08:25:10;101749.00;;;38.50
20736;BMP180;10528;52.124;5.196;2023-06-22T08:27:37;101749.00;;;38.40
20736;BMP180;10528;52.124;5.196;2023-06-22T08:30:06;101737.00;;;38.20
20736;BMP180;10528;52.124;5.196;2023-06-22T08:32:34;101734.00;;;38.10
20736;BMP180;10528;52.124;5.196;2023-06-22T08:35:01;101734.00;;;37.90
20736;BMP180;10528;52.124;5.196;2023-06-22T08:37:29;101731.00;;;37.80
20736;BMP180;10528;52.124;5.196;2023-06-22T08:40:05;101720.00;;;37.60
20736;BMP180;10528;52.124;5.196;2023-06-22T08:42:35;101724.00;;;37.50
20736;BMP180;10528;52.124;5.196;2023-06-22T08:45:02;101727.00;;;37.40
20736;BMP180;10528;52.124;5.196;2023-06-22T08:47:29;101718.00;;;37.30
20736;BMP180;10528;52.124;5.196;2023-06-22T08:49:56;101723.00;;;37.00
20736;BMP180;10528;52.124;5.196;2023-06-22T08:52:23;101720.00;;;36.70
20736;BMP180;10528;52.124;5.196;2023-06-22T08:54:50;101718.00;;;36.50
20736;BMP180;10528;52.124;5.196;2023-06-22T08:57:18;101720.00;;;36.20
20736;BMP180;10528;52.124;5.196;2023-06-22T08:59:45;101722.00;;;35.90
20736;BMP180;10528;52.124;5.196;2023-06-22T09:02:11;101728.00;;;35.70
20736;BMP180;10528;52.124;5.196;2023-06-22T09:04:39;101714.00;;;35.50
20736;BMP180;10528;52.124;5.196;2023-06-22T09:07:06;101717.00;;;35.20
20736;BMP180;10528;52.124;5.196;2023-06-22T09:09:33;101708.00;;;34.90
20736;BMP180;10528;52.124;5.196;2023-06-22T09:12:00;101709.00;;;34.60
20736;BMP180;10528;52.124;5.196;2023-06-22T09:14:27;101709.00;;;34.40
20736;BMP180;10528;52.124;5.196;2023-06-22T09:16:54;101705.00;;;34.20
20736;BMP180;10528;52.124;5.196;2023-06-22T09:19:21;101714.00;;;34.10
20736;BMP180;10528;52.124;5.196;2023-06-22T09:21:47;101708.00;;;34.00
20736;BMP180;10528;52.124;5.196;2023-06-22T09:24:14;101712.00;;;33.90
20736;BMP180;10528;52.124;5.196;2023-06-22T09:26:41;101711.00;;;33.80
20736;BMP180;10528;52.124;5.196;2023-06-22T09:29:08;101705.00;;;33.70
20736;BMP180;10528;52.124;5.196;2023-06-22T09:31:35;101707.00;;;33.60
20736;BMP180;10528;52.124;5.196;2023-06-22T09:34:02;101708.00;;;33.50
20736;BMP180;10528;52.124;5.196;2023-06-22T09:36:29;101710.00;;;33.30
20736;BMP180;10528;52.124;5.196;2023-06-22T09:38:56;101713.00;;;33.30
20736;BMP180;10528;52.124;5.196;2023-06-22T09:41:25;101712.00;;;33.30
20736;BMP180;10528;52.124;5.196;2023-06-22T09:43:52;101711.00;;;33.30
20736;BMP180;10528;52.124;5.196;2023-06-22T09:46:22;101713.00;;;33.30
20736;BMP180;10528;52.124;5.196;2023-06-22T09:48:52;101706.00;;;33.30
20736;BMP180;10528;52.124;5.196;2023-06-22T09:51:19;101703.00;;;33.20
20736;BMP180;10528;52.124;5.196;2023-06-22T09:53:48;101700.00;;;33.20
20736;BMP180;10528;52.124;5.196;2023-06-22T09:56:15;101699.00;;;33.20
20736;BMP180;10528;52.124;5.196;2023-06-22T09:58:43;101705.00;;;33.10
20736;BMP180;10528;52.124;5.196;2023-06-22T10:01:11;101698.00;;;33.00
20736;BMP180;10528;52.124;5.196;2023-06-22T10:03:38;101694.00;;;32.90
20736;BMP180;10528;52.124;5.196;2023-06-22T10:06:05;101691.00;;;32.90
20736;BMP180;10528;52.124;5.196;2023-06-22T10:08:32;101686.00;;;32.80
20736;BMP180;10528;52.124;5.196;2023-06-22T10:10:59;101700.00;;;32.70
20736;BMP180;10528;52.124;5.196;2023-06-22T10:13:26;101687.00;;;32.60
20736;BMP180;10528;52.124;5.196;2023-06-22T10:15:52;101695.00;;;32.50
20736;BMP180;10528;52.124;5.196;2023-06-22T10:18:20;101694.00;;;32.50
20736;BMP180;10528;52.124;5.196;2023-06-22T10:20:49;101701.00;;;32.50
20736;BMP180;10528;52.124;5.196;2023-06-22T10:23:21;101689.00;;;32.40
20736;BMP180;10528;52.124;5.196;2023-06-22T10:25:49;101690.00;;;32.30
20736;BMP180;10528;52.124;5.196;2023-06-22T10:28:15;101692.00;;;32.30
20736;BMP180;10528;52.124;5.196;2023-06-22T10:30:43;101692.00;;;32.20
20736;BMP180;10528;52.124;5.196;2023-06-22T10:33:12;101690.00;;;32.10
20736;BMP180;10528;52.124;5.196;2023-06-22T10:35:39;101692.00;;;32.10
20736;BMP180;10528;52.124;5.196;2023-06-22T10:38:06;101691.00;;;32.00
20736;BMP180;10528;52.124;5.196;2023-06-22T10:40:33;101699.00;;;31.90
20736;BMP180;10528;52.124;5.196;2023-06-22T10:43:00;101697.00;;;31.90
20736;BMP180;10528;52.124;5.196;2023-06-22T10:45:27;101696.00;;;31.80
20736;BMP180;10528;52.124;5.196;2023-06-22T10:47:55;101689.00;;;31.80
20736;BMP180;10528;52.124;5.196;2023-06-22T10:50:22;101690.00;;;31.70
20736;BMP180;10528;52.124;5.196;2023-06-22T10:52:51;101689.00;;;31.70
20736;BMP180;10528;52.124;5.196;2023-06-22T10:55:18;101695.00;;;31.70
20736;BMP180;10528;52.124;5.196;2023-06-22T10:57:45;101693.00;;;31.60
20736;BMP180;10528;52.124;5.196;2023-06-22T11:00:14;101694.00;;;31.60
20736;BMP180;10528;52.124;5.196;2023-06-22T11:02:43;101696.00;;;31.60
20736;BMP180;10528;52.124;5.196;2023-06-22T11:05:10;101692.00;;;31.60
20736;BMP180;10528;52.124;5.196;2023-06-22T11:07:45;101691.00;;;31.60
20736;BMP180;10528;52.124;5.196;2023-06-22T11:10:13;101691.00;;;31.60
20736;BMP180;10528;52.124;5.196;2023-06-22T11:12:40;101691.00;;;31.60
20736;BMP180;10528;52.124;5.196;2023-06-22T11:15:09;101686.00;;;31.60
20736;BMP180;10528;52.124;5.196;2023-06-22T11:17:36;101693.00;;;31.60
20736;BMP180;10528;52.124;5.196;2023-06-22T11:20:03;101689.00;;;31.50
20736;BMP180;10528;52.124;5.196;2023-06-22T11:22:39;101690.00;;;31.50
20736;BMP180;10528;52.124;5.196;2023-06-22T11:25:07;101697.00;;;31.50
20736;BMP180;10528;52.124;5.196;2023-06-22T11:27:34;101698.00;;;31.50
20736;BMP180;10528;52.124;5.196;2023-06-22T11:30:02;101695.00;;;31.50
20736;BMP180;10528;52.124;5.196;2023-06-22T11:32:29;101683.00;;;31.40
20736;BMP180;10528;52.124;5.196;2023-06-22T11:34:56;101684.00;;;31.40
20736;BMP180;10528;52.124;5.196;2023-06-22T11:37:23;101677.00;;;31.40
20736;BMP180;10528;52.124;5.196;2023-06-22T11:39:50;101677.00;;;31.40
20736;BMP180;10528;52.124;5.196;2023-06-22T11:42:32;101673.00;;;31.40
20736;BMP180;10528;52.124;5.196;2023-06-22T11:44:59;101667.00;;;31.40
20736;BMP180;10528;52.124;5.196;2023-06-22T11:47:26;101671.00;;;31.50
20736;BMP180;10528;52.124;5.196;2023-06-22T11:49:53;101659.00;;;31.50
20736;BMP180;10528;52.124;5.196;2023-06-22T11:52:21;101665.00;;;31.60
20736;BMP180;10528;52.124;5.196;2023-06-22T11:54:48;101660.00;;;31.60
20736;BMP180;10528;52.124;5.196;2023-06-22T11:57:15;101653.00;;;31.70
20736;BMP180;10528;52.124;5.196;2023-06-22T11:59:41;101644.00;;;31.70
20736;BMP180;10528;52.124;5.196;2023-06-22T12:02:08;101638.00;;;31.70
20736;BMP180;10528;52.124;5.196;2023-06-22T12:04:36;101645.00;;;31.70
20736;BMP180;10528;52.124;5.196;2023-06-22T12:07:04;101640.00;;;31.70
20736;BMP180;10528;52.124;5.196;2023-06-22T12:09:32;101629.00;;;31.70
20736;BMP180;10528;52.124;5.196;2023-06-22T12:11:59;101633.00;;;31.70
20736;BMP180;10528;52.124;5.196;2023-06-22T12:14:26;101625.00;;;31.70
20736;BMP180;10528;52.124;5.196;2023-06-22T12:16:56;101630.00;;;31.70
20736;BMP180;10528;52.124;5.196;2023-06-22T12:19:23;101625.00;;;31.60
20736;BMP180;10528;52.124;5.196;2023-06-22T12:21:50;101632.00;;;31.60
20736;BMP180;10528;52.124;5.196;2023-06-22T12:24:17;101634.00;;;31.60
20736;BMP180;10528;52.124;5.196;2023-06-22T12:26:44;101634.00;;;31.60
20736;BMP180;10528;52.124;5.196;2023-06-22T12:29:11;101627.00;;;31.60
20736;BMP180;10528;52.124;5.196;2023-06-22T12:31:38;101628.00;;;31.50
20736;BMP180;10528;52.124;5.196;2023-06-22T12:34:06;101620.00;;;31.50
20736;BMP180;10528;52.124;5.196;2023-06-22T12:36:33;101630.00;;;31.50
20736;BMP180;10528;52.124;5.196;2023-06-22T12:39:00;101621.00;;;31.50
20736;BMP180;10528;52.124;5.196;2023-06-22T12:41:27;101617.00;;;31.50
20736;BMP180;10528;52.124;5.196;2023-06-22T12:43:54;101624.00;;;31.40
20736;BMP180;10528;52.124;5.196;2023-06-22T12:46:20;101616.00;;;31.40
20736;BMP180;10528;52.124;5.196;2023-06-22T12:48:47;101604.00;;;31.30
20736;BMP180;10528;52.124;5.196;2023-06-22T12:51:21;101602.00;;;31.30
20736;BMP180;10528;52.124;5.196;2023-06-22T12:53:49;101597.00;;;31.30
20736;BMP180;10528;52.124;5.196;2023-06-22T12:56:15;101605.00;;;31.20
20736;BMP180;10528;52.124;5.196;2023-06-22T12:58:42;101600.00;;;31.20
20736;BMP180;10528;52.124;5.196;2023-06-22T13:01:09;101585.00;;;31.10
20736;BMP180;10528;52.124;5.196;2023-06-22T13:03:36;101596.00;;;31.10
20736;BMP180;10528;52.124;5.196;2023-06-22T13:06:03;101600.00;;;31.10
20736;BMP180;10528;52.124;5.196;2023-06-22T13:08:31;101597.00;;;31.00
20736;BMP180;10528;52.124;5.196;2023-06-22T13:11:18;101586.00;;;30.90
20736;BMP180;10528;52.124;5.196;2023-06-22T13:13:45;101595.00;;;30.90
20736;BMP180;10528;52.124;5.196;2023-06-22T13:16:12;101588.00;;;30.80
20736;BMP180;10528;52.124;5.196;2023-06-22T13:18:39;101601.00;;;30.80
20736;BMP180;10528;52.124;5.196;2023-06-22T13:21:06;101602.00;;;30.70
20736;BMP180;10528;52.124;5.196;2023-06-22T13:23:33;101599.00;;;30.60
20736;BMP180;10528;52.124;5.196;2023-06-22T13:26:00;101589.00;;;30.60
20736;BMP180;10528;52.124;5.196;2023-06-22T13:28:28;101594.00;;;30.50
20736;BMP180;10528;52.124;5.196;2023-06-22T13:30:56;101590.00;;;30.40
20736;BMP180;10528;52.124;5.196;2023-06-22T13:33:23;101602.00;;;30.40
20736;BMP180;10528;52.124;5.196;2023-06-22T13:35:50;101599.00;;;30.30
20736;BMP180;10528;52.124;5.196;2023-06-22T13:38:17;101607.00;;;30.30
20736;BMP180;10528;52.124;5.196;2023-06-22T13:40:44;101607.00;;;30.20
20736;BMP180;10528;52.124;5.196;2023-06-22T13:43:11;101603.00;;;30.20
20736;BMP180;10528;52.124;5.196;2023-06-22T13:45:38;101594.00;;;30.10
20736;BMP180;10528;52.124;5.196;2023-06-22T13:48:05;101591.00;;;30.10
20736;BMP180;10528;52.124;5.196;2023-06-22T13:50:32;101589.00;;;30.10
20736;BMP180;10528;52.124;5.196;2023-06-22T13:52:59;101592.00;;;30.00
20736;BMP180;10528;52.124;5.196;2023-06-22T13:55:26;101585.00;;;30.00
20736;BMP180;10528;52.124;5.196;2023-06-22T13:57:54;101575.00;;;30.00
20736;BMP180;10528;52.124;5.196;2023-06-22T14:00:21;101579.00;;;29.90
20736;BMP180;10528;52.124;5.196;2023-06-22T14:02:48;101575.00;;;29.90
20736;BMP180;10528;52.124;5.196;2023-06-22T14:05:15;101569.00;;;29.80